createdAt,value
2023-03-20T00:02:25.629Z,100826.72
2023-03-20T00:04:55.971Z,100817.19
2023-03-20T00:07:24.759Z,100818.66
2023-03-20T00:09:57.766Z,100817.69
2023-03-20T00:12:27.292Z,100816.97
2023-03-20T00:14:55.587Z,100823.75
2023-03-20T00:17:26.779Z,100829.03
2023-03-20T00:19:56.836Z,100829.56
2023-03-20T00:22:25.754Z,100831.06
2023-03-20T00:24:54.718Z,100835.53
2023-03-20T00:27:23.136Z,100829.19
2023-03-20T00:29:51.962Z,100837.59
2023-03-20T00:32:20.564Z,100842.50
2023-03-20T00:34:50.026Z,100845.72
2023-03-20T00:37:19.910Z,100848.41
2023-03-20T00:39:48.340Z,100843.75
2023-03-20T00:42:22.506Z,100847.19
2023-03-20T00:44:54.015Z,100851.88
2023-03-20T00:47:27.134Z,100848.50
2023-03-20T00:49:57.926Z,100839.69
2023-03-20T00:52:28.710Z,100849.13
2023-03-20T00:54:57.049Z,100843.00
2023-03-20T00:57:28.810Z,100841.88
2023-03-20T01:00:00.399Z,100845.59
2023-03-20T01:02:31.648Z,100846.00
2023-03-20T01:05:02.329Z,100857.28
2023-03-20T01:07:32.035Z,100848.38
2023-03-20T01:10:00.583Z,100855.38
2023-03-20T01:12:29.169Z,100853.88
2023-03-20T01:14:59.646Z,100851.56
2023-03-20T01:17:31.880Z,100849.00
2023-03-20T01:20:00.105Z,100840.53
2023-03-20T01:22:28.593Z,100849.97
2023-03-20T01:24:58.098Z,100841.16
2023-03-20T01:27:26.676Z,100846.16
2023-03-20T01:29:55.055Z,100849.44
2023-03-20T01:32:24.014Z,100850.72
2023-03-20T01:34:54.733Z,100854.97
2023-03-20T01:37:25.955Z,100849.13
2023-03-20T01:39:55.290Z,100858.16
2023-03-20T01:42:25.346Z,100860.19
2023-03-20T01:44:53.791Z,100860.59
2023-03-20T01:47:24.487Z,100861.88
2023-03-20T01:50:35.825Z,100859.34
2023-03-20T01:53:15.210Z,100862.53
2023-03-20T01:55:55.299Z,100867.09
2023-03-20T01:58:31.045Z,100860.31
2023-03-20T02:01:01.449Z,100853.50
2023-03-20T02:03:29.904Z,100858.28
2023-03-20T02:06:18.179Z,100862.75
2023-03-20T02:09:18.983Z,100859.97
2023-03-20T02:11:48.964Z,100857.94
2023-03-20T02:14:21.761Z,100852.97
2023-03-20T02:16:58.856Z,100864.03
2023-03-20T02:19:49.884Z,100861.47
2023-03-20T02:22:41.024Z,100856.69
2023-03-20T02:25:49.128Z,100853.94
2023-03-20T02:28:42.902Z,100858.59
2023-03-20T02:31:48.865Z,100857.66
2023-03-20T02:34:44.528Z,100859.88
2023-03-20T02:37:36.255Z,100869.66
2023-03-20T02:40:18.664Z,100862.00
2023-03-20T02:42:55.165Z,100855.00
2023-03-20T02:45:29.267Z,100866.03
2023-03-20T02:48:17.392Z,100862.00
2023-03-20T02:50:51.048Z,100865.72
2023-03-20T02:53:36.217Z,100873.94
2023-03-20T02:56:14.819Z,100872.63
2023-03-20T02:58:50.717Z,100867.09
2023-03-20T03:01:27.994Z,100872.41
2023-03-20T03:04:01.578Z,100877.66
2023-03-20T03:06:32.701Z,100868.06
2023-03-20T03:09:08.154Z,100878.38
2023-03-20T03:11:40.513Z,100874.56
2023-03-20T03:14:15.579Z,100878.06
2023-03-20T03:16:46.320Z,100875.19
2023-03-20T03:19:20.857Z,100873.47
2023-03-20T03:21:50.021Z,100875.72
2023-03-20T03:24:40.457Z,100875.19
2023-03-20T03:27:18.776Z,100873.38
2023-03-20T03:29:52.573Z,100870.72
2023-03-20T03:32:32.847Z,100870.28
2023-03-20T03:35:02.302Z,100869.78
2023-03-20T03:37:44.254Z,100857.53
2023-03-20T03:40:23.125Z,100861.56
2023-03-20T03:42:58.482Z,100867.84
2023-03-20T03:45:33.559Z,100865.63
2023-03-20T03:48:08.028Z,100870.06
2023-03-20T03:50:48.790Z,100867.09
2023-03-20T03:53:23.719Z,100874.13
2023-03-20T03:55:56.669Z,100878.91
2023-03-20T03:58:31.015Z,100881.13
2023-03-20T04:01:03.363Z,100881.88
2023-03-20T04:03:34.940Z,100881.00
2023-03-20T04:06:06.076Z,100892.06
2023-03-20T04:08:34.830Z,100884.31
2023-03-20T04:11:04.578Z,100887.63
2023-03-20T04:13:33.254Z,100887.53
2023-03-20T04:16:01.754Z,100885.28
2023-03-20T04:18:31.678Z,100888.06
2023-03-20T04:21:00.541Z,100891.56
2023-03-20T04:23:29.586Z,100886.75
2023-03-20T04:25:58.461Z,100890.81
2023-03-20T04:28:28.605Z,100893.06
2023-03-20T04:31:05.983Z,100889.75
2023-03-20T04:33:53.079Z,100891.25
2023-03-20T04:36:47.391Z,100889.00
2023-03-20T04:39:18.051Z,100883.25
2023-03-20T04:41:47.192Z,100889.53
2023-03-20T04:44:17.152Z,100895.16
2023-03-20T04:46:47.450Z,100892.19
2023-03-20T04:49:18.156Z,100889.88
2023-03-20T04:51:47.798Z,100898.69
2023-03-20T04:54:18.903Z,100894.19
2023-03-20T04:56:48.134Z,100893.47
2023-03-20T04:59:21.161Z,100896.97
2023-03-20T05:01:49.989Z,100905.47
2023-03-20T05:04:20.100Z,100904.94
2023-03-20T05:06:49.406Z,100906.47
2023-03-20T05:09:22.148Z,100906.97
2023-03-20T05:11:52.820Z,100907.97
2023-03-20T05:14:41.539Z,100910.47
2023-03-20T05:17:28.573Z,100904.94
2023-03-20T05:20:16.821Z,100913.50
2023-03-20T05:23:06.292Z,100916.25
2023-03-20T05:25:53.495Z,100919.75
2023-03-20T05:28:38.193Z,100920.28
2023-03-20T05:31:25.739Z,100915.28
2023-03-20T05:34:33.182Z,100913.25
2023-03-20T05:37:20.440Z,100910.59
2023-03-20T05:40:20.712Z,100907.09
2023-03-20T05:43:17.016Z,100903.06
2023-03-20T05:46:12.241Z,100904.56
2023-03-20T05:48:44.976Z,100899.03
2023-03-20T05:51:18.979Z,100896.25
2023-03-20T05:54:13.393Z,100884.22
2023-03-20T05:57:07.142Z,100893.78
2023-03-20T05:59:53.512Z,100894.94
2023-03-20T06:02:27.410Z,100903.06
2023-03-20T06:05:07.310Z,100903.56
2023-03-20T06:07:50.395Z,100912.94
2023-03-20T06:10:20.749Z,100913.69
2023-03-20T06:12:55.444Z,100927.41
2023-03-20T06:15:27.176Z,100927.63
2023-03-20T06:18:02.024Z,100926.66
2023-03-20T06:20:35.072Z,100923.91
2023-03-20T06:23:06.377Z,100924.09
2023-03-20T06:25:35.795Z,100919.44
2023-03-20T06:28:05.830Z,100931.44
2023-03-20T06:30:34.792Z,100934.22
2023-03-20T06:33:04.022Z,100932.94
2023-03-20T06:35:41.867Z,100940.38
2023-03-20T06:38:10.879Z,100934.31
2023-03-20T06:40:39.462Z,100942.63
2023-03-20T06:43:07.800Z,100947.59
2023-03-20T06:45:48.421Z,100944.31
2023-03-20T06:48:24.923Z,100956.03
2023-03-20T06:50:55.107Z,100951.31
2023-03-20T06:53:29.322Z,100950.88
2023-03-20T06:56:07.352Z,100956.41
2023-03-20T06:58:41.306Z,100954.38
2023-03-20T07:01:20.186Z,100958.78
2023-03-20T07:03:51.969Z,100965.38
2023-03-20T07:06:29.789Z,100956.03
2023-03-20T07:08:59.954Z,100957.28
2023-03-20T07:11:30.344Z,100958.88
2023-03-20T07:13:59.629Z,100954.94
2023-03-20T07:16:41.745Z,100958.13
2023-03-20T07:19:10.038Z,100956.31
2023-03-20T07:21:53.080Z,100954.28
2023-03-20T07:24:22.642Z,100958.56
2023-03-20T07:26:54.604Z,100951.31
2023-03-20T07:32:14.155Z,100957.69
2023-03-20T07:34:50.206Z,100965.53
2023-03-20T07:37:21.496Z,100964.69
2023-03-20T07:39:59.192Z,100970.81
2023-03-20T07:42:31.499Z,100972.44
2023-03-20T07:45:09.457Z,100976.16
2023-03-20T07:47:38.113Z,100975.41
2023-03-20T07:50:08.387Z,100974.56
2023-03-20T07:52:38.514Z,100975.31
2023-03-20T07:55:09.844Z,100975.09
2023-03-20T07:57:38.515Z,100980.41
2023-03-20T08:00:08.823Z,100986.94
2023-03-20T08:02:40.121Z,100989.25
2023-03-20T08:05:10.748Z,100985.81
2023-03-20T08:07:40.514Z,100994.47
2023-03-20T08:10:09.980Z,100985.53
2023-03-20T08:12:38.210Z,100991.41
2023-03-20T08:15:07.438Z,100997.06
2023-03-20T08:17:35.904Z,100989.72
2023-03-20T08:20:05.247Z,100995.78
2023-03-20T08:22:33.423Z,100988.75
2023-03-20T08:25:04.241Z,100995.56
2023-03-20T08:27:32.383Z,100998.31
2023-03-20T08:30:00.631Z,100999.91
2023-03-20T08:32:28.771Z,101007.25
2023-03-20T08:34:57.200Z,101001.19
2023-03-20T08:37:25.396Z,100998.03
2023-03-20T08:39:53.723Z,101007.63
2023-03-20T08:42:23.353Z,101005.78
2023-03-20T08:44:53.143Z,101011.19
2023-03-20T08:47:21.269Z,101015.94
2023-03-20T08:49:49.486Z,101012.84
2023-03-20T08:52:20.437Z,101020.81
2023-03-20T08:54:48.611Z,101017.16
2023-03-20T08:57:17.356Z,101026.63
2023-03-20T08:59:46.884Z,101025.16
2023-03-20T09:02:16.867Z,101025.53
2023-03-20T09:04:45.473Z,101036.38
2023-03-20T09:07:13.792Z,101031.63
2023-03-20T09:09:42.380Z,101029.19
2023-03-20T09:12:10.907Z,101029.94
2023-03-20T09:14:39.302Z,101024.94
2023-03-20T09:17:09.346Z,101019.25
2023-03-20T09:19:39.827Z,101023.84
2023-03-20T09:22:08.226Z,101034.50
2023-03-20T09:24:36.308Z,101042.50
2023-03-20T09:27:04.993Z,101035.34
2023-03-20T09:29:35.817Z,101041.97
2023-03-20T09:32:04.542Z,101044.47
2023-03-20T09:34:34.126Z,101043.41
2023-03-20T09:37:03.291Z,101046.81
2023-03-20T09:39:31.740Z,101051.50
2023-03-20T09:42:04.634Z,101057.25
2023-03-20T09:44:47.270Z,101054.69
2023-03-20T09:47:24.633Z,101054.09
2023-03-20T09:50:22.242Z,101050.69
2023-03-20T09:52:58.282Z,101062.91
2023-03-20T09:55:35.171Z,101059.81
2023-03-20T09:58:09.996Z,101060.47
2023-03-20T10:00:38.798Z,101051.09
2023-03-20T10:03:13.643Z,101051.22
2023-03-20T10:05:47.361Z,101050.84
2023-03-20T10:08:18.125Z,101041.44
2023-03-20T10:10:52.404Z,101044.88
2023-03-20T10:13:40.743Z,101042.59
2023-03-20T10:16:18.412Z,101041.16
2023-03-20T10:18:52.627Z,101036.53
2023-03-20T10:21:32.083Z,101028.78
2023-03-20T10:24:04.478Z,101022.84
2023-03-20T10:26:36.089Z,101024.16
2023-03-20T10:29:16.561Z,101018.94
2023-03-20T10:31:52.974Z,101028.19
2023-03-20T10:34:32.080Z,101019.91
2023-03-20T10:37:21.746Z,101024.72
2023-03-20T10:39:59.499Z,101031.28
2023-03-20T10:42:31.893Z,101023.63
2023-03-20T10:45:03.534Z,101024.09
2023-03-20T10:47:36.440Z,101018.81
2023-03-20T10:50:09.141Z,101019.25
2023-03-20T10:52:42.367Z,101014.13
2023-03-20T10:55:15.522Z,101015.94
2023-03-20T10:57:49.781Z,101012.91
2023-03-20T11:00:23.729Z,101002.91
2023-03-20T11:02:52.584Z,101016.22
2023-03-20T11:05:24.992Z,101016.38
2023-03-20T11:08:04.208Z,101008.19
2023-03-20T11:10:33.831Z,101011.31
2023-03-20T11:13:14.522Z,101001.06
2023-03-20T11:15:47.188Z,101009.13
2023-03-20T11:18:16.713Z,101007.97
2023-03-20T11:20:48.389Z,101002.28
2023-03-20T11:23:21.024Z,101013.66
2023-03-20T11:25:54.459Z,101001.59
2023-03-20T11:28:31.582Z,100998.97
2023-03-20T11:31:04.962Z,100994.50
2023-03-20T11:33:38.772Z,100995.19
2023-03-20T11:36:13.271Z,101002.75
2023-03-20T11:38:46.900Z,100988.88
2023-03-20T11:41:24.090Z,100992.09
2023-03-20T11:43:52.796Z,100989.94
2023-03-20T11:46:23.400Z,100993.75
2023-03-20T11:49:06.942Z,100986.53
2023-03-20T11:51:38.073Z,100993.47
2023-03-20T11:54:15.507Z,100981.69
2023-03-20T11:56:54.461Z,100981.84
2023-03-20T11:59:24.192Z,100977.38
2023-03-20T12:01:55.966Z,100976.84
2023-03-20T12:04:29.656Z,100980.16
2023-03-20T12:07:04.595Z,100966.72
2023-03-20T12:09:39.738Z,100968.22
2023-03-20T12:12:17.585Z,100973.03
2023-03-20T12:14:54.438Z,100961.38
2023-03-20T12:17:39.548Z,100964.16
2023-03-20T12:20:17.520Z,100961.31
2023-03-20T12:22:54.496Z,100965.09
2023-03-20T12:25:27.838Z,100959.63
2023-03-20T12:28:04.622Z,100945.81
2023-03-20T12:30:46.258Z,100949.34
2023-03-20T12:33:21.209Z,100939.66
2023-03-20T12:35:53.216Z,100943.78
2023-03-20T12:38:28.556Z,100938.69
2023-03-20T12:41:03.707Z,100934.31
2023-03-20T12:43:44.567Z,100927.63
2023-03-20T12:46:27.209Z,100927.66
2023-03-20T12:49:10.423Z,100926.47
2023-03-20T12:51:53.969Z,100924.66
2023-03-20T12:54:38.874Z,100929.94
2023-03-20T12:57:17.717Z,100923.16
2023-03-20T13:00:03.189Z,100928.97
2023-03-20T13:02:42.304Z,100916.06
2023-03-20T13:05:24.111Z,100918.53
2023-03-20T13:08:12.055Z,100916.59
2023-03-20T13:10:54.332Z,100914.28
2023-03-20T13:13:31.992Z,100915.34
2023-03-20T13:16:13.209Z,100911.53
2023-03-20T13:18:53.296Z,100905.72
2023-03-20T13:21:29.988Z,100904.63
2023-03-20T13:24:13.086Z,100897.78
2023-03-20T13:26:50.638Z,100891.28
2023-03-20T13:29:27.753Z,100887.47
2023-03-20T13:32:08.652Z,100889.75
2023-03-20T13:34:54.895Z,100887.38
2023-03-20T13:37:31.727Z,100884.69
2023-03-20T13:40:07.735Z,100884.16
2023-03-20T13:42:40.118Z,100869.06
2023-03-20T13:45:25.463Z,100873.81
2023-03-20T13:47:54.903Z,100872.81
2023-03-20T13:50:38.634Z,100873.66
2023-03-20T13:53:19.664Z,100864.59
2023-03-20T13:55:56.673Z,100861.00
2023-03-20T13:58:39.614Z,100862.88
2023-03-20T14:01:17.416Z,100860.13
2023-03-20T14:03:47.389Z,100863.44
2023-03-20T14:06:43.466Z,100856.28
2023-03-20T14:09:32.623Z,100848.81
2023-03-20T14:12:06.367Z,100850.06
2023-03-20T14:14:42.824Z,100841.66
2023-03-20T14:17:19.101Z,100844.72
2023-03-20T14:19:48.429Z,100851.47
2023-03-20T14:22:22.241Z,100848.22
2023-03-20T14:25:14.666Z,100844.72
2023-03-20T14:27:55.777Z,100847.31
2023-03-20T14:30:47.660Z,100852.19
2023-03-20T14:33:31.207Z,100851.53
2023-03-20T14:36:22.976Z,100853.50
2023-03-20T14:39:01.132Z,100858.34
2023-03-20T14:41:40.431Z,100846.91
2023-03-20T14:44:23.823Z,100856.97
2023-03-20T14:46:57.757Z,100844.09
2023-03-20T14:49:45.898Z,100849.44
2023-03-20T14:52:29.269Z,100847.72
2023-03-20T14:55:15.019Z,100841.69
2023-03-20T14:57:56.145Z,100841.97
2023-03-20T15:00:27.613Z,100836.81
2023-03-20T15:03:05.706Z,100841.09
2023-03-20T15:05:37.126Z,100836.50
2023-03-20T15:08:09.677Z,100842.53
2023-03-20T15:10:46.503Z,100837.75
2023-03-20T15:13:17.479Z,100839.22
2023-03-20T15:15:55.448Z,100845.16
2023-03-20T15:18:26.331Z,100844.50
2023-03-20T15:20:57.576Z,100846.53
2023-03-20T15:23:27.100Z,100843.97
2023-03-20T15:25:55.844Z,100851.16
2023-03-20T15:28:27.953Z,100840.66
2023-03-20T15:30:59.429Z,100840.59
2023-03-20T15:33:30.399Z,100853.13
2023-03-20T15:35:59.143Z,100842.78
2023-03-20T15:38:32.376Z,100841.06
2023-03-20T15:41:00.553Z,100847.78
2023-03-20T15:43:30.420Z,100844.53
2023-03-20T15:46:16.840Z,100845.94
2023-03-20T15:48:48.766Z,100838.94
2023-03-20T15:51:19.161Z,100846.56
2023-03-20T15:53:49.668Z,100845.34
2023-03-20T15:56:20.762Z,100846.19
2023-03-20T15:58:53.576Z,100857.25
2023-03-20T16:01:23.960Z,100851.09
2023-03-20T16:03:53.765Z,100844.63
2023-03-20T16:06:23.166Z,100850.59
2023-03-20T16:09:00.186Z,100856.28
2023-03-20T16:11:37.640Z,100852.75
2023-03-20T16:14:09.127Z,100850.59
2023-03-20T16:16:38.310Z,100846.22
2023-03-20T16:19:07.717Z,100849.22
2023-03-20T16:21:39.216Z,100849.84
2023-03-20T16:24:11.370Z,100849.88
2023-03-20T16:26:46.596Z,100858.03
2023-03-20T16:29:17.229Z,100848.44
2023-03-20T16:31:50.294Z,100854.44
2023-03-20T16:34:22.488Z,100851.72
2023-03-20T16:36:54.634Z,100859.31
2023-03-20T16:39:26.977Z,100857.81
2023-03-20T16:42:09.927Z,100855.63
2023-03-20T16:44:42.244Z,100850.47
2023-03-20T16:47:20.204Z,100855.09
2023-03-20T16:50:04.869Z,100854.53
2023-03-20T16:52:38.081Z,100856.41
2023-03-20T16:55:15.298Z,100858.59
2023-03-20T16:57:47.179Z,100867.13
2023-03-20T17:00:25.147Z,100866.72
2023-03-20T17:03:00.777Z,100871.75
2023-03-20T17:05:55.857Z,100868.56
2023-03-20T17:08:30.282Z,100864.31
2023-03-20T17:11:03.924Z,100864.09
2023-03-20T17:13:32.162Z,100876.31
2023-03-20T17:16:03.235Z,100878.91
2023-03-20T17:18:31.671Z,100877.06
2023-03-20T17:21:00.026Z,100879.97
2023-03-20T17:23:28.665Z,100887.34
2023-03-20T17:25:58.189Z,100886.03
2023-03-20T17:28:32.367Z,100894.72
2023-03-20T17:31:05.130Z,100884.13
2023-03-20T17:33:36.290Z,100885.81
2023-03-20T17:36:05.352Z,100888.94
2023-03-20T17:38:34.064Z,100893.50
2023-03-20T17:41:02.284Z,100899.22
2023-03-20T17:43:31.651Z,100899.34
2023-03-20T17:46:01.389Z,100898.22
2023-03-20T17:48:29.472Z,100897.25
2023-03-20T17:50:59.383Z,100905.72
2023-03-20T17:53:29.055Z,100901.47
2023-03-20T17:55:57.270Z,100906.09
2023-03-20T17:58:26.921Z,100910.91
2023-03-20T18:00:56.394Z,100915.00
2023-03-20T18:03:24.770Z,100910.28
2023-03-20T18:05:53.616Z,100910.50
2023-03-20T18:08:23.548Z,100916.19
2023-03-20T18:10:53.590Z,100905.84
2023-03-20T18:13:22.410Z,100899.94
2023-03-20T18:15:51.607Z,100900.63
2023-03-20T18:18:23.740Z,100903.97
2023-03-20T18:20:55.094Z,100898.47
2023-03-20T18:23:25.042Z,100904.16
2023-03-20T18:25:53.321Z,100903.75
2023-03-20T18:28:24.746Z,100896.19
2023-03-20T18:30:53.525Z,100900.97
2023-03-20T18:33:26.644Z,100896.34
2023-03-20T18:35:55.990Z,100905.75
2023-03-20T18:38:25.817Z,100894.66
2023-03-20T18:40:53.843Z,100903.84
2023-03-20T18:43:22.134Z,100893.84
2023-03-20T18:45:50.392Z,100894.19
2023-03-20T18:48:18.597Z,100902.28
2023-03-20T18:50:50.908Z,100901.56
2023-03-20T18:53:19.917Z,100900.06
2023-03-20T18:55:49.770Z,100900.94
2023-03-20T18:58:22.771Z,100897.03
2023-03-20T19:00:51.827Z,100907.38
2023-03-20T19:03:23.594Z,100907.16
2023-03-20T19:05:53.009Z,100912.69
2023-03-20T19:08:22.395Z,100905.47
2023-03-20T19:10:52.811Z,100901.44
2023-03-20T19:13:22.639Z,100904.75
2023-03-20T19:15:51.169Z,100904.69
2023-03-20T19:18:25.440Z,100902.38
2023-03-20T19:20:55.927Z,100904.94
2023-03-20T19:23:29.155Z,100902.50
2023-03-20T19:26:04.536Z,100897.50
2023-03-20T19:28:39.900Z,100895.09
2023-03-20T19:31:13.788Z,100892.09
2023-03-20T19:33:49.291Z,100896.47
2023-03-20T19:36:27.334Z,100899.59
2023-03-20T19:38:57.750Z,100890.66
2023-03-20T19:41:38.208Z,100896.53
2023-03-20T19:44:11.629Z,100897.41
2023-03-20T19:46:41.971Z,100895.53
2023-03-20T19:49:18.961Z,100890.50
2023-03-20T19:51:49.208Z,100889.34
2023-03-20T19:54:18.142Z,100891.91
2023-03-20T19:56:47.743Z,100889.69
2023-03-20T19:59:16.958Z,100881.72
2023-03-20T20:01:46.775Z,100890.34
2023-03-20T20:04:15.305Z,100890.13
2023-03-20T20:06:47.499Z,100890.13
2023-03-20T20:09:16.852Z,100884.06
2023-03-20T20:11:45.206Z,100884.81
2023-03-20T20:14:15.387Z,100885.56
2023-03-20T20:16:45.450Z,100889.78
2023-03-20T20:19:13.981Z,100887.25
2023-03-20T20:24:30.686Z,100878.72
2023-03-20T20:27:16.385Z,100882.78
2023-03-20T20:29:49.815Z,100874.81
2023-03-20T20:32:19.231Z,100875.13
2023-03-20T20:40:29.074Z,100875.88
2023-03-20T20:43:01.482Z,100873.31
2023-03-20T20:45:32.330Z,100878.84
2023-03-20T20:48:02.320Z,100875.78
2023-03-20T20:50:32.624Z,100879.81
2023-03-20T20:53:01.152Z,100878.84
2023-03-20T20:55:30.917Z,100878.13
2023-03-20T20:57:59.718Z,100878.63
2023-03-20T21:00:47.690Z,100878.13
2023-03-20T21:03:18.146Z,100877.91
2023-03-20T21:05:46.502Z,100882.16
2023-03-20T21:08:18.767Z,100886.19
2023-03-20T21:10:47.540Z,100884.19
2023-03-20T21:13:16.306Z,100888.22
2023-03-20T21:15:46.463Z,100884.72
2023-03-20T21:18:15.347Z,100890.25
2023-03-20T21:20:45.023Z,100892.25
2023-03-20T21:23:13.506Z,100881.75
2023-03-20T21:25:45.634Z,100885.03
2023-03-20T21:28:17.427Z,100886.13
2023-03-20T21:31:12.401Z,100881.66
2023-03-20T21:33:36.783Z,100885.69
2023-03-20T21:36:07.725Z,100884.94
2023-03-20T21:41:27.462Z,100878.47
2023-03-20T21:44:00.779Z,100882.72
2023-03-20T21:47:26.089Z,100889.00
2023-03-20T22:01:29.067Z,100876.03
2023-03-20T22:04:02.869Z,100871.03
2023-03-20T22:07:18.548Z,100875.41
2023-03-20T22:09:52.293Z,100871.16
2023-03-20T22:12:43.638Z,100861.91
2023-03-20T22:21:06.673Z,100875.63
2023-03-20T22:24:01.689Z,100877.63
2023-03-20T22:35:05.122Z,100872.75
2023-03-20T22:38:06.063Z,100868.78
2023-03-20T22:44:02.431Z,100865.41
2023-03-20T22:46:03.419Z,100874.97
2023-03-20T22:48:37.699Z,100873.50
2023-03-20T22:51:06.991Z,100866.25
2023-03-20T22:53:35.616Z,100868.81
2023-03-20T22:56:04.649Z,100868.38
2023-03-20T22:58:34.225Z,100862.63
2023-03-20T23:01:02.654Z,100861.91
2023-03-20T23:03:41.554Z,100856.38
2023-03-20T23:06:13.325Z,100852.66
2023-03-20T23:08:49.265Z,100851.91
2023-03-20T23:11:21.007Z,100850.41
2023-03-20T23:13:51.474Z,100840.84
2023-03-20T23:16:21.529Z,100843.41
2023-03-20T23:18:49.933Z,100842.44
2023-03-20T23:21:18.595Z,100841.72
2023-03-20T23:23:47.079Z,100848.50
2023-03-20T23:26:16.887Z,100843.72
2023-03-20T23:28:46.801Z,100840.22
2023-03-20T23:31:17.892Z,100842.75
2023-03-20T23:33:50.446Z,100845.13
2023-03-20T23:36:34.815Z,100847.44
2023-03-20T23:39:05.230Z,100839.47
2023-03-20T23:42:04.708Z,100842.03
2023-03-20T23:44:22.243Z,100832.78
2023-03-20T23:46:51.800Z,100827.78
2023-03-20T23:49:20.370Z,100832.03
2023-03-20T23:51:48.830Z,100829.28
2023-03-20T23:54:17.434Z,100829.81
2023-03-20T23:56:45.908Z,100830.53
2023-03-20T23:59:21.552Z,100824.28
